F/v_l'omerta — FHXG — position and weather

sailwx.info

Track history (hours):
 
Tides and Currents Weather Stations Pressure Air Temp Water Temp Dewpoint Dewpoint Depression Visibility Wind Speed Wind Dir Waves Ship Positions

F/v_l'omerta

Last reported at 2017-Sep-22 02:00 UTC. Time now 2017-Sep-22 17:19 UTC.
Position N 46°30' W 001°47'.

Length 18 m.

Type: Fishing. MMSI: 227903000.

Date/timePositionNaut miles runAvg speedWind from/ knotsBaromVisibWave heightAir tempDewpointWater temp
2017-Sep-22 02:00N 46°30' W 001°47'0 0.0
2017-Sep-22 01:30N 46°30' W 001°47'0 0.0
2017-Sep-22 01:00N 46°30' W 001°47'0 0.0
2017-Sep-22 00:30N 46°30' W 001°47'0 0.0
2017-Sep-22 00:00N 46°30' W 001°47'0 0.0
2017-Sep-21 23:30N 46°30' W 001°47'0 0.0
2017-Sep-21 23:00N 46°30' W 001°47'0 0.0
2017-Sep-21 22:30N 46°30' W 001°47'0 0.0
2017-Sep-21 22:00N 46°30' W 001°47'0 0.0
2017-Sep-21 21:30N 46°30' W 001°47'0 0.0
2017-Sep-21 21:00N 46°30' W 001°47'0 0.0
2017-Sep-21 20:30N 46°30' W 001°47'0 0.0
2017-Sep-21 20:00N 46°30' W 001°47'0 0.0
2017-Sep-21 19:30N 46°30' W 001°47'0 0.0
2017-Sep-21 19:00N 46°30' W 001°47'0 0.2
2017-Sep-21 18:30N 46°30' W 001°47'0 0.4
2017-Sep-21 18:00N 46°30' W 001°47'1 1.7
2017-Sep-21 17:30N 46°29' W 001°47'3 6.8
2017-Sep-21 17:00N 46°26' W 001°49'2 3.1
2017-Sep-21 16:30N 46°27' W 001°51'2 4.0
2017-Sep-21 16:00N 46°27' W 001°54'2 3.9
2017-Sep-21 15:30N 46°26' W 001°56'2 3.7
2017-Sep-21 15:00N 46°25' W 001°56'2 3.8
2017-Sep-21 14:30N 46°23' W 001°55'2 3.7
2017-Sep-21 14:00N 46°21' W 001°53'1 2.1
2017-Sep-21 13:30N 46°21' W 001°52'4 2.9
2017-Sep-21 12:08N 46°17' W 001°50'0 3.9
2017-Sep-21 12:00N 46°17' W 001°50'2 3.9
2017-Sep-21 11:25N 46°15' W 001°48'3 4.1
2017-Sep-21 10:47N 46°12' W 001°46'3 4.3
2017-Sep-21 09:58N 46°10' W 001°43'3 3.2
2017-Sep-21 08:56N 46°06' W 001°42'2 3.0
2017-Sep-21 08:15N 46°07' W 001°45'1 3.6
2017-Sep-21 07:55N 46°08' W 001°45'1 3.1
2017-Sep-21 07:27N 46°10' W 001°45'3 3.7
2017-Sep-21 06:45N 46°09' W 001°41'1 4.2
2017-Sep-21 06:29N 46°08' W 001°40'2 3.2
2017-Sep-21 05:45N 46°06' W 001°41'1 3.3
2017-Sep-21 05:29N 46°05' W 001°42'2 3.3
2017-Sep-21 04:58N 46°07' W 001°43'2 3.8
2017-Sep-21 04:30N 46°08' W 001°43'2 3.8
2017-Sep-21 03:59N 46°10' W 001°42'2 3.6
2017-Sep-21 03:28N 46°12' W 001°40'2 3.8
2017-Sep-21 02:58N 46°12' W 001°38'1 2.8
2017-Sep-21 02:30N 46°11' W 001°36'2 3.7
2017-Sep-21 01:55N 46°09' W 001°37'1 3.5
2017-Sep-21 01:30N 46°10' W 001°39'2 3.9
2017-Sep-21 01:00N 46°11' W 001°40'2 3.1
2017-Sep-21 00:29N 46°12' W 001°38'2 3.4
2017-Sep-21 00:00N 46°10' W 001°36'2 3.8
2017-Sep-20 23:30N 46°09' W 001°38'1 2.4
2017-Sep-20 23:00N 46°10' W 001°39'2 1.6
2017-Sep-20 21:48N 46°10' W 001°36'1 4.0
2017-Sep-20 21:28N 46°09' W 001°37'2 3.3
2017-Sep-20 20:56N 46°10' W 001°39'2 3.6
2017-Sep-20 20:30N 46°10' W 001°41'2 3.0
2017-Sep-20 19:53N 46°11' W 001°43'1 3.0
2017-Sep-20 19:30N 46°10' W 001°43'2 4.1
2017-Sep-20 19:00N 46°08' W 001°41'2 4.0
2017-Sep-20 18:30N 46°07' W 001°40'8 3.8
2017-Sep-20 16:23N 46°01' W 001°32'2 3.2
2017-Sep-20 15:49N 46°01' W 001°35'4 0.9
2017-Sep-20 12:00N 46°04' W 001°36'4 3.8
2017-Sep-20 11:03N 46°07' W 001°39'0 3.7
2017-Sep-20 10:59N 46°07' W 001°40'4 3.8
2017-Sep-20 09:57N 46°10' W 001°43'3 1.5
2017-Sep-20 08:20N 46°08' W 001°42'1 0.7
2017-Sep-20 06:51N 46°07' W 001°41'2 3.9
2017-Sep-20 06:18N 46°09' W 001°42'1 4.1
2017-Sep-20 06:00N 46°10' W 001°43'4 0.2
2017-Sep-19 12:21N 46°14' W 001°46'1 3.0
2017-Sep-19 12:00N 46°15' W 001°47'2 3.5
2017-Sep-19 11:30N 46°16' W 001°47'2 3.6
2017-Sep-19 11:00N 46°18' W 001°47'2 3.8
2017-Sep-19 10:30N 46°20' W 001°48'2 3.9
2017-Sep-19 10:00N 46°22' W 001°49'2 3.7
2017-Sep-19 09:30N 46°24' W 001°49'2 4.0
2017-Sep-19 09:00N 46°25' W 001°48'1 2.3
2017-Sep-19 08:30N 46°26' W 001°49'2 3.6
2017-Sep-19 08:00N 46°27' W 001°52'2 3.5
2017-Sep-19 07:30N 46°27' W 001°54'2 3.5
2017-Sep-19 07:00N 46°28' W 001°57'1 2.0
2017-Sep-19 06:30N 46°29' W 001°56'2 3.8
2017-Sep-19 06:00N 46°28' W 001°54'3 6.0
2017-Sep-19 05:30N 46°28' W 001°49'2 4.6
2017-Sep-19 05:00N 46°30' W 001°47'0 0.0
2017-Sep-19 04:30N 46°30' W 001°47'0 0.0
2017-Sep-19 04:00N 46°30' W 001°47'0 0.0
2017-Sep-19 03:30N 46°30' W 001°47'0 0.0
2017-Sep-19 03:00N 46°30' W 001°47'0 0.0
2017-Sep-19 02:30N 46°30' W 001°47'0 0.0
2017-Sep-19 02:00N 46°30' W 001°47'0 0.0
2017-Sep-19 01:30N 46°30' W 001°47'0 0.0
2017-Sep-19 01:00N 46°30' W 001°47'0 0.0
2017-Sep-19 00:30N 46°30' W 001°47'0 0.0
2017-Sep-19 00:00N 46°30' W 001°47'0 0.0
2017-Sep-18 23:30N 46°30' W 001°47'0 0.0
2017-Sep-18 23:00N 46°30' W 001°47'0 0.0
2017-Sep-18 22:30N 46°30' W 001°47'0 0.0
2017-Sep-18 22:00N 46°30' W 001°47'0 0.0
2017-Sep-18 21:30N 46°30' W 001°47'0 0.0
2017-Sep-18 21:00N 46°30' W 001°47'0 0.0
2017-Sep-18 20:30N 46°30' W 001°47'0 0.0
2017-Sep-18 20:00N 46°30' W 001°47'0 0.0
2017-Sep-18 19:30N 46°30' W 001°47'0 0.0
2017-Sep-18 19:00N 46°30' W 001°47'0 0.0
2017-Sep-18 18:30N 46°30' W 001°47'0 0.0
2017-Sep-18 18:00N 46°30' W 001°47'0 0.2
2017-Sep-18 17:30N 46°30' W 001°47'0 0.0
2017-Sep-18 17:00N 46°30' W 001°47'2 4.4
2017-Sep-18 16:30N 46°28' W 001°48'2 3.7
2017-Sep-18 16:00N 46°27' W 001°51'1 2.5
2017-Sep-18 15:30N 46°27' W 001°52'2 3.7
2017-Sep-18 15:00N 46°27' W 001°55'2 3.8
2017-Sep-18 14:30N 46°28' W 001°58'2 3.9
2017-Sep-18 14:00N 46°30' W 001°59'2 4.0
2017-Sep-18 13:30N 46°31' W 002°01'2 3.9
2017-Sep-18 12:59N 46°32' W 002°03'1 1.2
2017-Sep-18 12:30N 46°32' W 002°04'2 3.0
2017-Sep-18 12:00N 46°32' W 002°02'2 3.2
2017-Sep-18 11:30N 46°30' W 002°01'2 3.5
2017-Sep-18 11:00N 46°29' W 002°00'2 3.5
2017-Sep-18 10:30N 46°27' W 001°59'2 3.7
2017-Sep-18 10:00N 46°25' W 001°58'2 3.9
2017-Sep-18 09:30N 46°23' W 001°57'1 3.0
2017-Sep-18 09:00N 46°22' W 001°57'1 2.9
2017-Sep-18 08:30N 46°23' W 001°59'2 3.2
2017-Sep-18 08:00N 46°25' W 001°60'2 3.1
2017-Sep-18 07:30N 46°26' W 002°00'1 2.8
2017-Sep-18 07:00N 46°25' W 001°58'2 3.5
2017-Sep-18 06:30N 46°24' W 001°58'2 3.5
2017-Sep-18 06:00N 46°23' W 001°60'1 1.6
2017-Sep-18 05:30N 46°23' W 002°01'1 3.0
2017-Sep-18 05:00N 46°24' W 002°03'2 3.6
2017-Sep-18 04:30N 46°25' W 002°04'2 3.2
2017-Sep-18 04:00N 46°26' W 002°02'2 3.8
2017-Sep-18 03:30N 46°25' W 001°60'2 3.8
2017-Sep-18 03:00N 46°23' W 001°59'3 3.7
2017-Sep-18 02:10N 46°21' W 001°57'1 3.9
2017-Sep-18 01:55N 46°20' W 001°56'1 1.9
2017-Sep-18 01:19N 46°19' W 001°55'2 2.9
2017-Sep-18 00:45N 46°17' W 001°54'1 3.2
2017-Sep-18 00:30N 46°17' W 001°54'2 3.5
2017-Sep-17 23:58N 46°15' W 001°52'2 3.5
2017-Sep-17 23:21N 46°13' W 001°51'1 3.7
2017-Sep-17 23:00N 46°12' W 001°50'6 2.1
2017-Sep-17 20:14N 46°09' W 001°42'3 3.7
2017-Sep-17 19:22N 46°12' W 001°45'1 0.1
2017-Sep-17 10:19N 46°11' W 001°46'1 3.6
2017-Sep-17 10:00N 46°13' W 001°46'1 0.3
2017-Sep-17 06:37N 46°12' W 001°45'0 3.9
2017-Sep-17 06:30N 46°12' W 001°46'2 3.8
2017-Sep-17 06:00N 46°14' W 001°47'3 5.1
2017-Sep-17 05:30N 46°16' W 001°48'4 8.6
2017-Sep-17 05:00N 46°21' W 001°48'4 8.5
2017-Sep-17 04:30N 46°25' W 001°47'4 8.2
2017-Sep-17 04:00N 46°29' W 001°47'1 2.1
2017-Sep-17 03:30N 46°30' W 001°47'0 0.0
2017-Sep-17 03:00N 46°30' W 001°47'2 3.8
2017-Sep-17 02:30N 46°28' W 001°48'4 8.4
2017-Sep-17 02:00N 46°27' W 001°54'1 2.3
2017-Sep-17 01:30N 46°26' W 001°54'2 3.5
2017-Sep-17 01:00N 46°25' W 001°53'2 3.6
2017-Sep-17 00:30N 46°23' W 001°52'2 3.7
2017-Sep-17 00:00N 46°21' W 001°51'2 3.8
2017-Sep-16 23:30N 46°19' W 001°50'2 3.7
2017-Sep-16 23:00N 46°18' W 001°49'2 3.8
2017-Sep-16 22:30N 46°16' W 001°47'6 3.4
2017-Sep-16 20:46N 46°11' W 001°43'2 1.2
2017-Sep-16 18:55N 46°12' W 001°46'2 3.8
2017-Sep-16 18:27N 46°14' W 001°47'2 3.9
2017-Sep-16 18:00N 46°15' W 001°48'1 1.5
2017-Sep-16 17:26N 46°16' W 001°48'2 3.8
2017-Sep-16 17:00N 46°15' W 001°47'2 3.7
2017-Sep-16 16:30N 46°13' W 001°45'3 0.7
2017-Sep-16 12:41N 46°11' W 001°47'3 0.8
2017-Sep-16 08:29N 46°09' W 001°43'5 3.7
2017-Sep-16 07:14N 46°13' W 001°46'1 3.0
2017-Sep-16 06:59N 46°13' W 001°46'0 0.1
2017-Sep-16 04:24N 46°12' W 001°46'1 3.6
2017-Sep-16 03:59N 46°13' W 001°47'2 3.4
2017-Sep-16 03:30N 46°14' W 001°49'2 3.0
2017-Sep-16 02:53N 46°15' W 001°47'2 3.2
2017-Sep-16 02:22N 46°14' W 001°45'2 0.2
2017-Sep-15 15:27N 46°12' W 001°45'2 3.9
2017-Sep-15 15:00N 46°13' W 001°47'2 3.9
2017-Sep-15 14:30N 46°15' W 001°48'1 2.4
2017-Sep-15 14:00N 46°16' W 001°48'2 3.6
2017-Sep-15 13:30N 46°16' W 001°46'2 3.2
2017-Sep-15 13:00N 46°14' W 001°46'2 3.5
2017-Sep-15 12:30N 46°14' W 001°48'2 3.4
2017-Sep-15 12:00N 46°15' W 001°50'2 3.8
2017-Sep-15 11:30N 46°16' W 001°50'2 3.9
2017-Sep-15 11:00N 46°18' W 001°49'1 2.0
2017-Sep-15 10:27N 46°19' W 001°48'2 3.7
2017-Sep-15 10:00N 46°17' W 001°47'2 3.6
2017-Sep-15 09:28N 46°15' W 001°46'1 2.8
2017-Sep-15 09:00N 46°16' W 001°47'2 3.9
2017-Sep-15 08:30N 46°17' W 001°49'2 3.8
2017-Sep-15 08:00N 46°19' W 001°50'2 4.0
2017-Sep-15 07:30N 46°21' W 001°51'2 4.3
2017-Sep-15 07:00N 46°23' W 001°51'4 9.0
2017-Sep-15 06:30N 46°27' W 001°48'3 5.6
2017-Sep-15 06:00N 46°30' W 001°47'0 0.0
2017-Sep-14 10:43N 46°30' W 001°47'0 0.0
2017-Sep-14 10:30N 46°30' W 001°47'0 0.0
2017-Sep-14 10:00N 46°30' W 001°47'0 0.0
2017-Sep-14 09:30N 46°30' W 001°47'0 0.0
2017-Sep-14 09:00N 46°30' W 001°47'0 0.0
2017-Sep-14 08:30N 46°30' W 001°47'0 0.0
2017-Sep-14 08:00N 46°30' W 001°47'0 0.0
2017-Sep-14 07:30N 46°30' W 001°47'0 0.0
2017-Sep-14 07:00N 46°30' W 001°47'0 0.0
2017-Sep-14 06:30N 46°30' W 001°47'0 0.0
2017-Sep-14 06:00N 46°30' W 001°47'0 0.0
2017-Sep-14 05:30N 46°30' W 001°47'0 0.0
2017-Sep-13 10:47N 46°30' W 001°47'0 0.0
2017-Sep-13 10:30N 46°30' W 001°47'0 0.1
2017-Sep-13 10:00N 46°30' W 001°47'0 0.0
2017-Sep-13 09:30N 46°30' W 001°47'0 0.0
2017-Sep-13 09:00N 46°30' W 001°47'0 0.0
2017-Sep-13 08:30N 46°30' W 001°47'0 0.1
2017-Sep-13 08:00N 46°30' W 001°47'0 0.2
2017-Sep-13 07:30N 46°30' W 001°47'0 0.0
2017-Sep-13 07:00N 46°30' W 001°47'1 2.8
2017-Sep-13 06:30N 46°29' W 001°47'4 8.7
2017-Sep-13 06:00N 46°24' W 001°48'5 9.1
2017-Sep-13 05:30N 46°20' W 001°51'3 5.7
2017-Sep-13 05:00N 46°17' W 001°52'1 2.4
2017-Sep-13 04:30N 46°16' W 001°53'1 2.0
2017-Sep-13 04:00N 46°17' W 001°54'2 3.5
2017-Sep-13 03:30N 46°19' W 001°55'2 3.6
2017-Sep-13 02:59N 46°20' W 001°57'1 2.5
2017-Sep-13 02:30N 46°21' W 001°56'1 3.0
2017-Sep-13 02:00N 46°22' W 001°54'1 1.6
2017-Sep-13 01:30N 46°22' W 001°53'2 3.4
2017-Sep-13 01:00N 46°21' W 001°52'2 3.7
2017-Sep-13 00:30N 46°19' W 001°51'2 3.6
2017-Sep-13 00:00N 46°17' W 001°50'2 3.6
2017-Sep-12 23:30N 46°16' W 001°48'2 3.6
2017-Sep-12 23:00N 46°14' W 001°47'4 3.3
2017-Sep-12 21:46N 46°11' W 001°43'3 3.3
2017-Sep-12 20:52N 46°13' W 001°46'1 3.8
2017-Sep-12 20:30N 46°15' W 001°47'2 3.9
2017-Sep-12 20:00N 46°16' W 001°47'2 3.9
2017-Sep-12 19:30N 46°18' W 001°48'2 3.9
2017-Sep-12 19:00N 46°20' W 001°49'2 3.7
2017-Sep-12 18:30N 46°22' W 001°50'1 2.9
2017-Sep-12 18:00N 46°22' W 001°48'1 2.8
2017-Sep-12 17:30N 46°21' W 001°48'2 3.6
2017-Sep-12 16:57N 46°19' W 001°46'2 3.7
2017-Sep-12 16:23N 46°17' W 001°45'1 2.9
2017-Sep-12 16:00N 46°16' W 001°45'2 3.9
2017-Sep-12 15:30N 46°18' W 001°47'2 3.7
2017-Sep-12 15:00N 46°20' W 001°48'2 4.1
2017-Sep-12 14:30N 46°21' W 001°50'1 2.2
2017-Sep-12 14:00N 46°20' W 001°50'2 3.8
2017-Sep-12 13:30N 46°18' W 001°49'2 3.8
2017-Sep-12 13:00N 46°16' W 001°48'1 2.4
2017-Sep-12 12:30N 46°17' W 001°46'2 3.8
2017-Sep-12 12:00N 46°19' W 001°48'2 3.8
2017-Sep-12 11:30N 46°20' W 001°49'2 3.6
2017-Sep-12 11:00N 46°22' W 001°50'1 2.5
2017-Sep-12 10:30N 46°21' W 001°49'2 3.7
2017-Sep-12 10:00N 46°19' W 001°48'2 3.5
2017-Sep-12 09:30N 46°18' W 001°47'2 3.6
2017-Sep-12 08:56N 46°16' W 001°46'2 3.5
2017-Sep-12 08:18N 46°14' W 001°46'3 2.7
2017-Sep-12 07:17N 46°12' W 001°42'3 9.5
2017-Sep-12 07:00N 46°15' W 001°42'5 9.4
2017-Sep-12 06:30N 46°20' W 001°43'5 9.4
2017-Sep-12 06:00N 46°24' W 001°45'5 9.4
2017-Sep-12 05:30N 46°29' W 001°47'1 2.2
2017-Sep-12 05:00N 46°30' W 001°47'  
Track history (hours):
 
Tides and Currents Weather Stations Pressure Air Temp Water Temp Dewpoint Dewpoint Depression Visibility Wind Speed Wind Dir Waves Ship Positions

F/v_l'omerta

Last reported at 2017-Sep-22 02:00 UTC. Time now 2017-Sep-22 17:19 UTC.
Position N 46°30' W 001°47'.

Length 18 m.

Type: Fishing. MMSI: 227903000.

Date/timePositionNaut miles runAvg speedWind from/ knotsBaromVisibWave heightAir tempDewpointWater temp
2017-Sep-22 02:00N 46°30' W 001°47'0 0.0
2017-Sep-22 01:30N 46°30' W 001°47'0 0.0
2017-Sep-22 01:00N 46°30' W 001°47'0 0.0
2017-Sep-22 00:30N 46°30' W 001°47'0 0.0
2017-Sep-22 00:00N 46°30' W 001°47'0 0.0
2017-Sep-21 23:30N 46°30' W 001°47'0 0.0
2017-Sep-21 23:00N 46°30' W 001°47'0 0.0
2017-Sep-21 22:30N 46°30' W 001°47'0 0.0
2017-Sep-21 22:00N 46°30' W 001°47'0 0.0
2017-Sep-21 21:30N 46°30' W 001°47'0 0.0
2017-Sep-21 21:00N 46°30' W 001°47'0 0.0
2017-Sep-21 20:30N 46°30' W 001°47'0 0.0
2017-Sep-21 20:00N 46°30' W 001°47'0 0.0
2017-Sep-21 19:30N 46°30' W 001°47'0 0.0
2017-Sep-21 19:00N 46°30' W 001°47'0 0.2
2017-Sep-21 18:30N 46°30' W 001°47'0 0.4
2017-Sep-21 18:00N 46°30' W 001°47'1 1.7
2017-Sep-21 17:30N 46°29' W 001°47'3 6.8
2017-Sep-21 17:00N 46°26' W 001°49'2 3.1
2017-Sep-21 16:30N 46°27' W 001°51'2 4.0
2017-Sep-21 16:00N 46°27' W 001°54'2 3.9
2017-Sep-21 15:30N 46°26' W 001°56'2 3.7
2017-Sep-21 15:00N 46°25' W 001°56'2 3.8
2017-Sep-21 14:30N 46°23' W 001°55'2 3.7
2017-Sep-21 14:00N 46°21' W 001°53'1 2.1
2017-Sep-21 13:30N 46°21' W 001°52'4 2.9
2017-Sep-21 12:08N 46°17' W 001°50'0 3.9
2017-Sep-21 12:00N 46°17' W 001°50'2 3.9
2017-Sep-21 11:25N 46°15' W 001°48'3 4.1
2017-Sep-21 10:47N 46°12' W 001°46'3 4.3
2017-Sep-21 09:58N 46°10' W 001°43'3 3.2
2017-Sep-21 08:56N 46°06' W 001°42'2 3.0
2017-Sep-21 08:15N 46°07' W 001°45'1 3.6
2017-Sep-21 07:55N 46°08' W 001°45'1 3.1
2017-Sep-21 07:27N 46°10' W 001°45'3 3.7
2017-Sep-21 06:45N 46°09' W 001°41'1 4.2
2017-Sep-21 06:29N 46°08' W 001°40'2 3.2
2017-Sep-21 05:45N 46°06' W 001°41'1 3.3
2017-Sep-21 05:29N 46°05' W 001°42'2 3.3
2017-Sep-21 04:58N 46°07' W 001°43'2 3.8
2017-Sep-21 04:30N 46°08' W 001°43'2 3.8
2017-Sep-21 03:59N 46°10' W 001°42'2 3.6
2017-Sep-21 03:28N 46°12' W 001°40'2 3.8
2017-Sep-21 02:58N 46°12' W 001°38'1 2.8
2017-Sep-21 02:30N 46°11' W 001°36'2 3.7
2017-Sep-21 01:55N 46°09' W 001°37'1 3.5
2017-Sep-21 01:30N 46°10' W 001°39'2 3.9
2017-Sep-21 01:00N 46°11' W 001°40'2 3.1
2017-Sep-21 00:29N 46°12' W 001°38'2 3.4
2017-Sep-21 00:00N 46°10' W 001°36'2 3.8
2017-Sep-20 23:30N 46°09' W 001°38'1 2.4
2017-Sep-20 23:00N 46°10' W 001°39'2 1.6
2017-Sep-20 21:48N 46°10' W 001°36'1 4.0
2017-Sep-20 21:28N 46°09' W 001°37'2 3.3
2017-Sep-20 20:56N 46°10' W 001°39'2 3.6
2017-Sep-20 20:30N 46°10' W 001°41'2 3.0
2017-Sep-20 19:53N 46°11' W 001°43'1 3.0
2017-Sep-20 19:30N 46°10' W 001°43'2 4.1
2017-Sep-20 19:00N 46°08' W 001°41'2 4.0
2017-Sep-20 18:30N 46°07' W 001°40'8 3.8
2017-Sep-20 16:23N 46°01' W 001°32'2 3.2
2017-Sep-20 15:49N 46°01' W 001°35'4 0.9
2017-Sep-20 12:00N 46°04' W 001°36'4 3.8
2017-Sep-20 11:03N 46°07' W 001°39'0 3.7
2017-Sep-20 10:59N 46°07' W 001°40'4 3.8
2017-Sep-20 09:57N 46°10' W 001°43'3 1.5
2017-Sep-20 08:20N 46°08' W 001°42'1 0.7
2017-Sep-20 06:51N 46°07' W 001°41'2 3.9
2017-Sep-20 06:18N 46°09' W 001°42'1 4.1
2017-Sep-20 06:00N 46°10' W 001°43'4 0.2
2017-Sep-19 12:21N 46°14' W 001°46'1 3.0
2017-Sep-19 12:00N 46°15' W 001°47'2 3.5
2017-Sep-19 11:30N 46°16' W 001°47'2 3.6
2017-Sep-19 11:00N 46°18' W 001°47'2 3.8
2017-Sep-19 10:30N 46°20' W 001°48'2 3.9
2017-Sep-19 10:00N 46°22' W 001°49'2 3.7
2017-Sep-19 09:30N 46°24' W 001°49'2 4.0
2017-Sep-19 09:00N 46°25' W 001°48'1 2.3
2017-Sep-19 08:30N 46°26' W 001°49'2 3.6
2017-Sep-19 08:00N 46°27' W 001°52'2 3.5
2017-Sep-19 07:30N 46°27' W 001°54'2 3.5
2017-Sep-19 07:00N 46°28' W 001°57'1 2.0
2017-Sep-19 06:30N 46°29' W 001°56'2 3.8
2017-Sep-19 06:00N 46°28' W 001°54'3 6.0
2017-Sep-19 05:30N 46°28' W 001°49'2 4.6
2017-Sep-19 05:00N 46°30' W 001°47'0 0.0
2017-Sep-19 04:30N 46°30' W 001°47'0 0.0
2017-Sep-19 04:00N 46°30' W 001°47'0 0.0
2017-Sep-19 03:30N 46°30' W 001°47'0 0.0
2017-Sep-19 03:00N 46°30' W 001°47'0 0.0
2017-Sep-19 02:30N 46°30' W 001°47'0 0.0
2017-Sep-19 02:00N 46°30' W 001°47'0 0.0
2017-Sep-19 01:30N 46°30' W 001°47'0 0.0
2017-Sep-19 01:00N 46°30' W 001°47'0 0.0
2017-Sep-19 00:30N 46°30' W 001°47'0 0.0
2017-Sep-19 00:00N 46°30' W 001°47'0 0.0
2017-Sep-18 23:30N 46°30' W 001°47'0 0.0
2017-Sep-18 23:00N 46°30' W 001°47'0 0.0
2017-Sep-18 22:30N 46°30' W 001°47'0 0.0
2017-Sep-18 22:00N 46°30' W 001°47'0 0.0
2017-Sep-18 21:30N 46°30' W 001°47'0 0.0
2017-Sep-18 21:00N 46°30' W 001°47'0 0.0
2017-Sep-18 20:30N 46°30' W 001°47'0 0.0
2017-Sep-18 20:00N 46°30' W 001°47'0 0.0
2017-Sep-18 19:30N 46°30' W 001°47'0 0.0
2017-Sep-18 19:00N 46°30' W 001°47'0 0.0
2017-Sep-18 18:30N 46°30' W 001°47'0 0.0
2017-Sep-18 18:00N 46°30' W 001°47'0 0.2
2017-Sep-18 17:30N 46°30' W 001°47'0 0.0
2017-Sep-18 17:00N 46°30' W 001°47'2 4.4
2017-Sep-18 16:30N 46°28' W 001°48'2 3.7
2017-Sep-18 16:00N 46°27' W 001°51'1 2.5
2017-Sep-18 15:30N 46°27' W 001°52'2 3.7
2017-Sep-18 15:00N 46°27' W 001°55'2 3.8
2017-Sep-18 14:30N 46°28' W 001°58'2 3.9
2017-Sep-18 14:00N 46°30' W 001°59'2 4.0
2017-Sep-18 13:30N 46°31' W 002°01'2 3.9
2017-Sep-18 12:59N 46°32' W 002°03'1 1.2
2017-Sep-18 12:30N 46°32' W 002°04'2 3.0
2017-Sep-18 12:00N 46°32' W 002°02'2 3.2
2017-Sep-18 11:30N 46°30' W 002°01'2 3.5
2017-Sep-18 11:00N 46°29' W 002°00'2 3.5
2017-Sep-18 10:30N 46°27' W 001°59'2 3.7
2017-Sep-18 10:00N 46°25' W 001°58'2 3.9
2017-Sep-18 09:30N 46°23' W 001°57'1 3.0
2017-Sep-18 09:00N 46°22' W 001°57'1 2.9
2017-Sep-18 08:30N 46°23' W 001°59'2 3.2
2017-Sep-18 08:00N 46°25' W 001°60'2 3.1
2017-Sep-18 07:30N 46°26' W 002°00'1 2.8
2017-Sep-18 07:00N 46°25' W 001°58'2 3.5
2017-Sep-18 06:30N 46°24' W 001°58'2 3.5
2017-Sep-18 06:00N 46°23' W 001°60'1 1.6
2017-Sep-18 05:30N 46°23' W 002°01'1 3.0
2017-Sep-18 05:00N 46°24' W 002°03'2 3.6
2017-Sep-18 04:30N 46°25' W 002°04'2 3.2
2017-Sep-18 04:00N 46°26' W 002°02'2 3.8
2017-Sep-18 03:30N 46°25' W 001°60'2 3.8
2017-Sep-18 03:00N 46°23' W 001°59'3 3.7
2017-Sep-18 02:10N 46°21' W 001°57'1 3.9
2017-Sep-18 01:55N 46°20' W 001°56'1 1.9
2017-Sep-18 01:19N 46°19' W 001°55'2 2.9
2017-Sep-18 00:45N 46°17' W 001°54'1 3.2
2017-Sep-18 00:30N 46°17' W 001°54'2 3.5
2017-Sep-17 23:58N 46°15' W 001°52'2 3.5
2017-Sep-17 23:21N 46°13' W 001°51'1 3.7
2017-Sep-17 23:00N 46°12' W 001°50'6 2.1
2017-Sep-17 20:14N 46°09' W 001°42'3 3.7
2017-Sep-17 19:22N 46°12' W 001°45'1 0.1
2017-Sep-17 10:19N 46°11' W 001°46'1 3.6
2017-Sep-17 10:00N 46°13' W 001°46'1 0.3
2017-Sep-17 06:37N 46°12' W 001°45'0 3.9
2017-Sep-17 06:30N 46°12' W 001°46'2 3.8
2017-Sep-17 06:00N 46°14' W 001°47'3 5.1
2017-Sep-17 05:30N 46°16' W 001°48'4 8.6
2017-Sep-17 05:00N 46°21' W 001°48'4 8.5
2017-Sep-17 04:30N 46°25' W 001°47'4 8.2
2017-Sep-17 04:00N 46°29' W 001°47'1 2.1
2017-Sep-17 03:30N 46°30' W 001°47'0 0.0
2017-Sep-17 03:00N 46°30' W 001°47'2 3.8
2017-Sep-17 02:30N 46°28' W 001°48'4 8.4
2017-Sep-17 02:00N 46°27' W 001°54'1 2.3
2017-Sep-17 01:30N 46°26' W 001°54'2 3.5
2017-Sep-17 01:00N 46°25' W 001°53'2 3.6
2017-Sep-17 00:30N 46°23' W 001°52'2 3.7
2017-Sep-17 00:00N 46°21' W 001°51'2 3.8
2017-Sep-16 23:30N 46°19' W 001°50'2 3.7
2017-Sep-16 23:00N 46°18' W 001°49'2 3.8
2017-Sep-16 22:30N 46°16' W 001°47'6 3.4
2017-Sep-16 20:46N 46°11' W 001°43'2 1.2
2017-Sep-16 18:55N 46°12' W 001°46'2 3.8
2017-Sep-16 18:27N 46°14' W 001°47'2 3.9
2017-Sep-16 18:00N 46°15' W 001°48'1 1.5
2017-Sep-16 17:26N 46°16' W 001°48'2 3.8
2017-Sep-16 17:00N 46°15' W 001°47'2 3.7
2017-Sep-16 16:30N 46°13' W 001°45'3 0.7
2017-Sep-16 12:41N 46°11' W 001°47'3 0.8
2017-Sep-16 08:29N 46°09' W 001°43'5 3.7
2017-Sep-16 07:14N 46°13' W 001°46'1 3.0
2017-Sep-16 06:59N 46°13' W 001°46'0 0.1
2017-Sep-16 04:24N 46°12' W 001°46'1 3.6
2017-Sep-16 03:59N 46°13' W 001°47'2 3.4
2017-Sep-16 03:30N 46°14' W 001°49'2 3.0
2017-Sep-16 02:53N 46°15' W 001°47'2 3.2
2017-Sep-16 02:22N 46°14' W 001°45'2 0.2
2017-Sep-15 15:27N 46°12' W 001°45'2 3.9
2017-Sep-15 15:00N 46°13' W 001°47'2 3.9
2017-Sep-15 14:30N 46°15' W 001°48'1 2.4
2017-Sep-15 14:00N 46°16' W 001°48'2 3.6
2017-Sep-15 13:30N 46°16' W 001°46'2 3.2
2017-Sep-15 13:00N 46°14' W 001°46'2 3.5
2017-Sep-15 12:30N 46°14' W 001°48'2 3.4
2017-Sep-15 12:00N 46°15' W 001°50'2 3.8
2017-Sep-15 11:30N 46°16' W 001°50'2 3.9
2017-Sep-15 11:00N 46°18' W 001°49'1 2.0
2017-Sep-15 10:27N 46°19' W 001°48'2 3.7
2017-Sep-15 10:00N 46°17' W 001°47'2 3.6
2017-Sep-15 09:28N 46°15' W 001°46'1 2.8
2017-Sep-15 09:00N 46°16' W 001°47'2 3.9
2017-Sep-15 08:30N 46°17' W 001°49'2 3.8
2017-Sep-15 08:00N 46°19' W 001°50'2 4.0
2017-Sep-15 07:30N 46°21' W 001°51'2 4.3
2017-Sep-15 07:00N 46°23' W 001°51'4 9.0
2017-Sep-15 06:30N 46°27' W 001°48'3 5.6
2017-Sep-15 06:00N 46°30' W 001°47'0 0.0
2017-Sep-14 10:43N 46°30' W 001°47'0 0.0
2017-Sep-14 10:30N 46°30' W 001°47'0 0.0
2017-Sep-14 10:00N 46°30' W 001°47'0 0.0
2017-Sep-14 09:30N 46°30' W 001°47'0 0.0
2017-Sep-14 09:00N 46°30' W 001°47'0 0.0
2017-Sep-14 08:30N 46°30' W 001°47'0 0.0
2017-Sep-14 08:00N 46°30' W 001°47'0 0.0
2017-Sep-14 07:30N 46°30' W 001°47'0 0.0
2017-Sep-14 07:00N 46°30' W 001°47'0 0.0
2017-Sep-14 06:30N 46°30' W 001°47'0 0.0
2017-Sep-14 06:00N 46°30' W 001°47'0 0.0
2017-Sep-14 05:30N 46°30' W 001°47'0 0.0
2017-Sep-13 10:47N 46°30' W 001°47'0 0.0
2017-Sep-13 10:30N 46°30' W 001°47'0 0.1
2017-Sep-13 10:00N 46°30' W 001°47'0 0.0
2017-Sep-13 09:30N 46°30' W 001°47'0 0.0
2017-Sep-13 09:00N 46°30' W 001°47'0 0.0
2017-Sep-13 08:30N 46°30' W 001°47'0 0.1
2017-Sep-13 08:00N 46°30' W 001°47'0 0.2
2017-Sep-13 07:30N 46°30' W 001°47'0 0.0
2017-Sep-13 07:00N 46°30' W 001°47'1 2.8
2017-Sep-13 06:30N 46°29' W 001°47'4 8.7
2017-Sep-13 06:00N 46°24' W 001°48'5 9.1
2017-Sep-13 05:30N 46°20' W 001°51'3 5.7
2017-Sep-13 05:00N 46°17' W 001°52'1 2.4
2017-Sep-13 04:30N 46°16' W 001°53'1 2.0
2017-Sep-13 04:00N 46°17' W 001°54'2 3.5
2017-Sep-13 03:30N 46°19' W 001°55'2 3.6
2017-Sep-13 02:59N 46°20' W 001°57'1 2.5
2017-Sep-13 02:30N 46°21' W 001°56'1 3.0
2017-Sep-13 02:00N 46°22' W 001°54'1 1.6
2017-Sep-13 01:30N 46°22' W 001°53'2 3.4
2017-Sep-13 01:00N 46°21' W 001°52'2 3.7
2017-Sep-13 00:30N 46°19' W 001°51'2 3.6
2017-Sep-13 00:00N 46°17' W 001°50'2 3.6
2017-Sep-12 23:30N 46°16' W 001°48'2 3.6
2017-Sep-12 23:00N 46°14' W 001°47'4 3.3
2017-Sep-12 21:46N 46°11' W 001°43'3 3.3
2017-Sep-12 20:52N 46°13' W 001°46'1 3.8
2017-Sep-12 20:30N 46°15' W 001°47'2 3.9
2017-Sep-12 20:00N 46°16' W 001°47'2 3.9
2017-Sep-12 19:30N 46°18' W 001°48'2 3.9
2017-Sep-12 19:00N 46°20' W 001°49'2 3.7
2017-Sep-12 18:30N 46°22' W 001°50'1 2.9
2017-Sep-12 18:00N 46°22' W 001°48'1 2.8
2017-Sep-12 17:30N 46°21' W 001°48'2 3.6
2017-Sep-12 16:57N 46°19' W 001°46'2 3.7
2017-Sep-12 16:23N 46°17' W 001°45'1 2.9
2017-Sep-12 16:00N 46°16' W 001°45'2 3.9
2017-Sep-12 15:30N 46°18' W 001°47'2 3.7
2017-Sep-12 15:00N 46°20' W 001°48'2 4.1
2017-Sep-12 14:30N 46°21' W 001°50'1 2.2
2017-Sep-12 14:00N 46°20' W 001°50'2 3.8
2017-Sep-12 13:30N 46°18' W 001°49'2 3.8
2017-Sep-12 13:00N 46°16' W 001°48'1 2.4
2017-Sep-12 12:30N 46°17' W 001°46'2 3.8
2017-Sep-12 12:00N 46°19' W 001°48'2 3.8
2017-Sep-12 11:30N 46°20' W 001°49'2 3.6
2017-Sep-12 11:00N 46°22' W 001°50'1 2.5
2017-Sep-12 10:30N 46°21' W 001°49'2 3.7
2017-Sep-12 10:00N 46°19' W 001°48'2 3.5
2017-Sep-12 09:30N 46°18' W 001°47'2 3.6
2017-Sep-12 08:56N 46°16' W 001°46'2 3.5
2017-Sep-12 08:18N 46°14' W 001°46'3 2.7
2017-Sep-12 07:17N 46°12' W 001°42'3 9.5
2017-Sep-12 07:00N 46°15' W 001°42'5 9.4
2017-Sep-12 06:30N 46°20' W 001°43'5 9.4
2017-Sep-12 06:00N 46°24' W 001°45'5 9.4
2017-Sep-12 05:30N 46°29' W 001°47'1 2.2
2017-Sep-12 05:00N 46°30' W 001°47'  

Dump ship's entire track history